createdAt,value
2023-02-12T00:01:17.989Z,102570.09
2023-02-12T00:03:44.668Z,102572.69
2023-02-12T00:06:14.192Z,102567.50
2023-02-12T00:08:42.812Z,102572.75
2023-02-12T00:11:14.947Z,102573.63
2023-02-12T00:13:42.303Z,102568.44
2023-02-12T00:16:11.740Z,102567.63
2023-02-12T00:18:39.207Z,102555.44
2023-02-12T00:21:08.969Z,102551.22
2023-02-12T00:23:37.054Z,102555.53
2023-02-12T00:26:15.534Z,102551.06
2023-02-12T00:28:42.240Z,102539.72
2023-02-12T00:31:11.878Z,102538.81
2023-02-12T00:33:38.972Z,102536.22
2023-02-12T00:36:06.128Z,102529.31
2023-02-12T00:38:32.855Z,102521.50
2023-02-12T00:40:59.642Z,102520.78
2023-02-12T00:43:26.499Z,102515.53
2023-02-12T00:45:53.421Z,102520.72
2023-02-12T00:48:21.250Z,102520.72
2023-02-12T00:50:49.875Z,102517.28
2023-02-12T00:53:16.912Z,102524.25
2023-02-12T00:55:43.998Z,102521.81
2023-02-12T00:58:10.650Z,102528.72
2023-02-12T01:00:37.472Z,102527.81
2023-02-12T01:03:04.671Z,102527.81
2023-02-12T01:05:31.764Z,102526.06
2023-02-12T01:07:58.408Z,102532.97
2023-02-12T01:10:25.203Z,102528.53
2023-02-12T01:12:52.176Z,102525.03
2023-02-12T01:15:19.084Z,102514.56
2023-02-12T01:17:46.053Z,102511.06
2023-02-12T01:20:17.962Z,102515.38
2023-02-12T01:22:44.858Z,102521.47
2023-02-12T01:25:12.243Z,102515.38
2023-02-12T01:27:39.516Z,102527.53
2023-02-12T01:30:08.673Z,102525.78
2023-02-12T01:32:35.378Z,102530.97
2023-02-12T01:35:02.503Z,102538.75
2023-02-12T01:37:29.165Z,102537.09
2023-02-12T01:39:55.880Z,102539.84
2023-02-12T01:42:22.544Z,102538.28
2023-02-12T01:45:13.938Z,102537.47
2023-02-12T01:47:45.201Z,102538.44
2023-02-12T01:50:15.384Z,102541.09
2023-02-12T01:52:48.472Z,102543.03
2023-02-12T01:55:15.966Z,102526.75
2023-02-12T01:57:46.088Z,102526.00
2023-02-12T02:00:20.130Z,102528.78
2023-02-12T02:02:54.052Z,102517.66
2023-02-12T02:05:43.846Z,102510.03
2023-02-12T02:08:11.059Z,102510.13
2023-02-12T02:10:38.040Z,102514.50
2023-02-12T02:13:23.540Z,102509.44
2023-02-12T02:15:55.349Z,102514.78
2023-02-12T02:18:41.982Z,102514.81
2023-02-12T02:21:49.995Z,102513.19
2023-02-12T02:24:34.877Z,102497.59
2023-02-12T02:27:17.008Z,102490.75
2023-02-12T02:30:25.131Z,102495.13
2023-02-12T02:33:06.606Z,102478.66
2023-02-12T02:35:52.460Z,102490.81
2023-02-12T02:38:40.524Z,102476.97
2023-02-12T02:41:26.252Z,102477.06
2023-02-12T02:43:53.386Z,102477.13
2023-02-12T02:46:53.332Z,102466.00
2023-02-12T02:49:25.417Z,102472.19
2023-02-12T02:52:00.954Z,102502.63
2023-02-12T02:54:48.693Z,102488.81
2023-02-12T02:57:38.882Z,102486.25
2023-02-12T03:00:18.524Z,102482.78
2023-02-12T03:03:02.764Z,102478.53
2023-02-12T03:05:33.618Z,102481.31
2023-02-12T03:08:13.096Z,102475.38
2023-02-12T03:10:49.059Z,102476.38
2023-02-12T03:13:26.925Z,102474.88
2023-02-12T03:15:59.017Z,102465.53
2023-02-12T03:18:33.925Z,102464.78
2023-02-12T03:21:10.805Z,102464.97
2023-02-12T03:24:25.386Z,102468.69
2023-02-12T03:27:04.199Z,102448.88
2023-02-12T03:29:32.144Z,102444.66
2023-02-12T03:32:05.117Z,102435.25
2023-02-12T03:34:59.541Z,102431.09
2023-02-12T03:37:37.152Z,102425.09
2023-02-12T03:40:18.916Z,102439.09
2023-02-12T03:42:56.320Z,102427.97
2023-02-12T03:45:48.000Z,102423.78
2023-02-12T03:48:24.553Z,102427.41
2023-02-12T03:50:59.400Z,102432.63
2023-02-12T03:53:28.764Z,102424.16
2023-02-12T03:56:02.642Z,102420.00
2023-02-12T03:58:32.771Z,102413.19
2023-02-12T04:01:00.669Z,102404.53
2023-02-12T04:03:28.106Z,102405.44
2023-02-12T04:05:55.118Z,102413.34
2023-02-12T04:08:22.560Z,102410.06
2023-02-12T04:11:04.039Z,102405.78
2023-02-12T04:13:47.743Z,102399.72
2023-02-12T04:16:14.486Z,102397.13
2023-02-12T04:18:44.909Z,102400.56
2023-02-12T04:21:42.380Z,102395.34
2023-02-12T04:24:28.426Z,102401.41
2023-02-12T04:27:03.637Z,102397.97
2023-02-12T04:29:56.247Z,102399.69
2023-02-12T04:32:46.826Z,102409.22
2023-02-12T04:35:25.064Z,102410.09
2023-02-12T04:38:24.198Z,102410.13
2023-02-12T04:40:52.377Z,102410.13
2023-02-12T04:43:37.090Z,102405.88
2023-02-12T04:46:05.982Z,102405.88
2023-02-12T04:48:34.673Z,102392.75
2023-02-12T04:51:02.256Z,102388.41
2023-02-12T04:53:29.016Z,102391.88
2023-02-12T04:55:56.107Z,102388.38
2023-02-12T04:58:23.035Z,102383.16
2023-02-12T05:00:49.750Z,102374.50
2023-02-12T05:03:16.425Z,102367.66
2023-02-12T05:05:43.108Z,102368.59
2023-02-12T05:08:09.781Z,102356.47
2023-02-12T05:10:36.506Z,102360.75
2023-02-12T05:13:03.227Z,102356.47
2023-02-12T05:15:29.916Z,102353.91
2023-02-12T05:17:57.841Z,102356.50
2023-02-12T05:20:24.498Z,102360.97
2023-02-12T05:22:54.140Z,102346.22
2023-02-12T05:25:20.881Z,102349.75
2023-02-12T05:27:47.733Z,102336.72
2023-02-12T05:30:14.629Z,102338.50
2023-02-12T05:32:41.293Z,102323.75
2023-02-12T05:35:08.410Z,102312.50
2023-02-12T05:37:36.400Z,102313.38
2023-02-12T05:40:05.867Z,102312.63
2023-02-12T05:42:32.691Z,102315.31
2023-02-12T05:44:59.352Z,102310.13
2023-02-12T05:47:26.049Z,102306.63
2023-02-12T05:49:52.714Z,102307.56
2023-02-12T05:52:19.354Z,102304.91
2023-02-12T05:54:49.622Z,102307.56
2023-02-12T05:57:16.283Z,102314.56
2023-02-12T05:59:42.926Z,102310.25
2023-02-12T06:02:09.599Z,102310.25
2023-02-12T06:04:36.242Z,102319.88
2023-02-12T06:07:02.912Z,102322.59
2023-02-12T06:09:29.650Z,102326.97
2023-02-12T06:11:56.318Z,102321.75
2023-02-12T06:14:23.217Z,102328.72
2023-02-12T06:16:51.731Z,102322.69
2023-02-12T06:19:19.861Z,102316.66
2023-02-12T06:21:47.047Z,102309.66
2023-02-12T06:24:15.672Z,102307.13
2023-02-12T06:26:42.993Z,102308.00
2023-02-12T06:29:09.757Z,102320.19
2023-02-12T06:31:37.724Z,102311.56
2023-02-12T06:34:08.385Z,102305.50
2023-02-12T06:36:41.017Z,102307.25
2023-02-12T06:39:08.701Z,102297.78
2023-02-12T06:41:35.362Z,102296.09
2023-02-12T06:44:02.049Z,102285.69
2023-02-12T06:46:28.720Z,102290.06
2023-02-12T06:48:57.752Z,102299.66
2023-02-12T06:51:25.867Z,102298.81
2023-02-12T06:53:53.793Z,102301.50
2023-02-12T06:56:22.039Z,102299.75
2023-02-12T06:58:55.142Z,102298.91
2023-02-12T07:01:27.071Z,102299.00
2023-02-12T07:03:59.427Z,102292.97
2023-02-12T07:06:28.533Z,102291.28
2023-02-12T07:08:56.078Z,102286.97
2023-02-12T07:11:27.507Z,102276.56
2023-02-12T07:13:54.194Z,102270.56
2023-02-12T07:16:21.388Z,102277.59
2023-02-12T07:18:48.569Z,102275.03
2023-02-12T07:21:16.795Z,102269.91
2023-02-12T07:23:50.865Z,102268.06
2023-02-12T07:26:18.903Z,102270.81
2023-02-12T07:28:45.632Z,102272.56
2023-02-12T07:31:15.975Z,102266.56
2023-02-12T07:33:43.925Z,102270.13
2023-02-12T07:36:13.551Z,102273.72
2023-02-12T07:38:40.700Z,102276.38
2023-02-12T07:41:14.406Z,102276.47
2023-02-12T07:43:43.430Z,102268.72
2023-02-12T07:46:17.280Z,102267.91
2023-02-12T07:48:45.189Z,102273.22
2023-02-12T07:51:19.414Z,102272.44
2023-02-12T07:53:46.488Z,102265.56
2023-02-12T07:56:19.506Z,102260.38
2023-02-12T07:58:47.576Z,102252.66
2023-02-12T08:01:16.224Z,102250.16
2023-02-12T08:03:43.915Z,102258.94
2023-02-12T08:06:13.197Z,102242.53
2023-02-12T08:08:40.141Z,102240.81
2023-02-12T08:11:09.035Z,102234.81
2023-02-12T08:13:37.255Z,102224.50
2023-02-12T08:16:09.668Z,102213.28
2023-02-12T08:18:36.592Z,102211.66
2023-02-12T08:21:09.382Z,102211.75
2023-02-12T08:23:36.339Z,102217.09
2023-02-12T08:26:22.532Z,102202.38
2023-02-12T08:28:55.390Z,102201.63
2023-02-12T08:31:27.433Z,102201.72
2023-02-12T08:33:55.709Z,102196.63
2023-02-12T08:36:25.193Z,102193.22
2023-02-12T08:38:52.740Z,102182.91
2023-02-12T08:41:24.989Z,102182.97
2023-02-12T08:43:54.072Z,102187.50
2023-02-12T08:46:43.316Z,102177.13
2023-02-12T08:49:16.390Z,102188.56
2023-02-12T08:51:46.129Z,102192.16
2023-02-12T08:54:15.867Z,102199.19
2023-02-12T08:56:42.754Z,102214.09
2023-02-12T08:59:11.040Z,102218.53
2023-02-12T09:01:39.381Z,102215.16
2023-02-12T09:04:06.523Z,102223.13
2023-02-12T09:06:35.729Z,102227.59
2023-02-12T09:09:03.435Z,102227.63
2023-02-12T09:11:33.513Z,102215.50
2023-02-12T09:14:02.826Z,102217.34
2023-02-12T09:16:31.609Z,102229.63
2023-02-12T09:18:58.836Z,102220.22
2023-02-12T09:21:26.326Z,102219.47
2023-02-12T09:23:53.697Z,102222.25
2023-02-12T09:26:22.856Z,102211.84
2023-02-12T09:28:50.707Z,102213.72
2023-02-12T09:31:29.250Z,102206.88
2023-02-12T09:34:00.302Z,102199.16
2023-02-12T09:36:27.483Z,102201.03
2023-02-12T09:38:54.379Z,102193.28
2023-02-12T09:41:43.289Z,102184.66
2023-02-12T09:44:26.932Z,102178.69
2023-02-12T09:46:56.883Z,102163.03
2023-02-12T09:49:44.009Z,102166.66
2023-02-12T09:52:17.772Z,102168.47
2023-02-12T09:54:45.208Z,102170.25
2023-02-12T09:57:25.411Z,102162.53
2023-02-12T09:59:58.335Z,102148.69
2023-02-12T10:02:25.026Z,102154.00
2023-02-12T10:05:01.295Z,102151.44
2023-02-12T10:08:08.148Z,102146.28
2023-02-12T10:11:06.919Z,102153.41
2023-02-12T10:14:02.091Z,102154.38
2023-02-12T10:16:56.226Z,102144.03
2023-02-12T10:19:47.313Z,102133.56
2023-02-12T10:22:55.047Z,102133.63
2023-02-12T10:25:52.923Z,102138.00
2023-02-12T10:28:28.494Z,102124.03
2023-02-12T10:31:02.273Z,102132.84
2023-02-12T10:33:40.873Z,102127.72
2023-02-12T10:36:14.760Z,102128.69
2023-02-12T10:38:47.490Z,102125.31
2023-02-12T10:41:16.821Z,102125.41
2023-02-12T10:43:43.857Z,102129.00
2023-02-12T10:46:17.619Z,102120.28
2023-02-12T10:48:48.077Z,102112.50
2023-02-12T10:51:31.509Z,102118.66
2023-02-12T10:54:31.865Z,102109.13
2023-02-12T10:56:59.980Z,102116.13
2023-02-12T10:59:26.671Z,102117.06
2023-02-12T11:01:53.494Z,102117.94
2023-02-12T11:04:33.481Z,102115.31
2023-02-12T11:07:09.911Z,102115.38
2023-02-12T11:09:45.717Z,102099.66
2023-02-12T11:12:24.396Z,102099.72
2023-02-12T11:14:54.250Z,102110.25
2023-02-12T11:17:35.961Z,102106.78
2023-02-12T11:20:20.703Z,102105.03
2023-02-12T11:22:59.507Z,102107.75
2023-02-12T11:25:29.451Z,102100.84
2023-02-12T11:28:18.767Z,102104.41
2023-02-12T11:30:59.957Z,102100.03
2023-02-12T11:33:35.322Z,102096.59
2023-02-12T11:36:16.162Z,102101.88
2023-02-12T11:38:53.435Z,102096.66
2023-02-12T11:41:26.507Z,102095.84
2023-02-12T11:43:54.091Z,102087.16
2023-02-12T11:46:30.518Z,102080.22
2023-02-12T11:48:58.557Z,102078.50
2023-02-12T11:51:29.635Z,102074.16
2023-02-12T11:54:01.081Z,102075.06
2023-02-12T11:56:43.196Z,102076.84
2023-02-12T11:59:22.071Z,102076.94
2023-02-12T12:01:52.264Z,102062.97
2023-02-12T12:04:23.372Z,102068.31
2023-02-12T12:07:02.836Z,102075.38
2023-02-12T12:09:46.142Z,102071.88
2023-02-12T12:12:22.730Z,102074.56
2023-02-12T12:15:17.415Z,102071.09
2023-02-12T12:18:08.088Z,102072.84
2023-02-12T12:20:57.883Z,102069.41
2023-02-12T12:23:52.416Z,102073.78
2023-02-12T12:26:25.357Z,102065.97
2023-02-12T12:29:24.404Z,102076.44
2023-02-12T12:31:56.312Z,102079.09
2023-02-12T12:34:24.822Z,102071.25
2023-02-12T12:37:16.273Z,102064.28
2023-02-12T12:39:48.494Z,102072.19
2023-02-12T12:42:39.164Z,102073.09
2023-02-12T12:46:01.241Z,102074.88
2023-02-12T12:48:55.378Z,102057.38
2023-02-12T12:52:05.280Z,102064.41
2023-02-12T12:54:47.737Z,102060.00
2023-02-12T12:57:55.156Z,102060.91
2023-02-12T13:00:40.550Z,102053.03
2023-02-12T13:03:33.374Z,102052.16
2023-02-12T13:06:21.565Z,102044.31
2023-02-12T13:09:06.545Z,102047.81
2023-02-12T13:11:35.818Z,102060.03
2023-02-12T13:14:27.690Z,102063.53
2023-02-12T13:17:10.518Z,102061.78
2023-02-12T13:19:42.859Z,102060.03
2023-02-12T13:22:35.141Z,102065.34
2023-02-12T13:25:24.089Z,102067.97
2023-02-12T13:27:52.126Z,102074.09
2023-02-12T13:30:36.687Z,102060.97
2023-02-12T13:33:12.159Z,102067.13
2023-02-12T13:35:43.508Z,102059.25
2023-02-12T13:38:19.034Z,102068.00
2023-02-12T13:40:49.684Z,102075.00
2023-02-12T13:43:40.109Z,102073.25
2023-02-12T13:46:40.962Z,102069.75
2023-02-12T13:49:27.580Z,102080.25
2023-02-12T13:52:03.832Z,102082.81
2023-02-12T13:54:56.052Z,102081.91
2023-02-12T13:57:22.869Z,102087.16
2023-02-12T13:59:58.355Z,102095.88
2023-02-12T14:02:29.715Z,102095.84
2023-02-12T14:05:02.338Z,102082.69
2023-02-12T14:07:51.592Z,102078.34
2023-02-12T14:11:29.341Z,102080.94
2023-02-12T14:14:04.273Z,102075.63
2023-02-12T14:16:30.900Z,102066.84
2023-02-12T14:19:34.816Z,102072.03
2023-02-12T14:22:03.393Z,102075.47
2023-02-12T14:24:35.996Z,102070.13
2023-02-12T14:27:06.602Z,102079.72
2023-02-12T14:29:33.477Z,102074.44
2023-02-12T14:32:00.297Z,102072.66
2023-02-12T14:34:36.238Z,102069.97
2023-02-12T14:37:18.038Z,102076.03
2023-02-12T14:39:45.680Z,102066.34
2023-02-12T14:42:12.262Z,102066.31
2023-02-12T14:44:57.899Z,102065.38
2023-02-12T14:47:30.700Z,102064.47
2023-02-12T14:50:06.544Z,102065.28
2023-02-12T14:52:39.508Z,102059.16
2023-02-12T14:55:18.942Z,102068.72
2023-02-12T14:57:46.164Z,102079.13
2023-02-12T15:00:18.980Z,102077.44
2023-02-12T15:02:49.843Z,102087.88
2023-02-12T15:05:24.215Z,102079.94
2023-02-12T15:07:56.146Z,102078.16
2023-02-12T15:10:27.782Z,102087.75
2023-02-12T15:13:00.641Z,102086.81
2023-02-12T15:15:50.157Z,102094.56
2023-02-12T15:18:41.282Z,102096.25
2023-02-12T15:21:13.697Z,102092.69
2023-02-12T15:23:43.163Z,102098.72
2023-02-12T15:26:17.534Z,102103.09
2023-02-12T15:28:48.165Z,102095.19
2023-02-12T15:31:18.025Z,102084.63
2023-02-12T15:33:50.016Z,102089.00
2023-02-12T15:36:22.653Z,102082.88
2023-02-12T15:38:53.205Z,102082.88
2023-02-12T15:41:37.938Z,102080.28
2023-02-12T15:44:31.192Z,102078.50
2023-02-12T15:47:13.239Z,102082.84
2023-02-12T15:49:42.103Z,102083.69
2023-02-12T15:52:19.484Z,102086.31
2023-02-12T15:54:47.647Z,102083.69
2023-02-12T15:57:21.822Z,102099.41
2023-02-12T15:59:57.602Z,102106.38
2023-02-12T16:02:30.462Z,102098.53
2023-02-12T16:04:58.630Z,102100.28
2023-02-12T16:07:37.173Z,102096.78
2023-02-12T16:10:05.532Z,102095.00
2023-02-12T16:12:37.685Z,102091.47
2023-02-12T16:15:05.431Z,102076.66
2023-02-12T16:17:35.268Z,102079.28
2023-02-12T16:20:19.852Z,102082.75
2023-02-12T16:22:49.297Z,102083.63
2023-02-12T16:25:18.270Z,102096.72
2023-02-12T16:28:04.288Z,102093.25
2023-02-12T16:30:43.037Z,102093.31
2023-02-12T16:33:32.439Z,102088.94
2023-02-12T16:36:23.869Z,102087.19
2023-02-12T16:38:56.115Z,102086.38
2023-02-12T16:41:24.516Z,102095.13
2023-02-12T16:44:17.013Z,102085.50
2023-02-12T16:46:50.465Z,102089.06
2023-02-12T16:49:20.351Z,102084.69
2023-02-12T16:51:48.915Z,102079.53
2023-02-12T16:54:32.458Z,102085.63
2023-02-12T16:56:59.638Z,102078.59
2023-02-12T16:59:26.723Z,102079.53
2023-02-12T17:02:05.432Z,102080.38
2023-02-12T17:04:32.174Z,102067.31
2023-02-12T17:06:58.856Z,102070.81
2023-02-12T17:09:25.570Z,102085.63
2023-02-12T17:11:52.423Z,102098.72
2023-02-12T17:14:20.545Z,102120.50
2023-02-12T17:16:48.188Z,102108.31
2023-02-12T17:19:14.957Z,102110.03
2023-02-12T17:21:44.472Z,102124.84
2023-02-12T17:24:16.068Z,102122.19
2023-02-12T17:26:42.822Z,102123.03
2023-02-12T17:29:09.506Z,102133.44
2023-02-12T17:31:37.654Z,102134.34
2023-02-12T17:34:05.462Z,102144.88
2023-02-12T17:36:32.719Z,102144.00
2023-02-12T17:39:00.201Z,102131.84
2023-02-12T17:41:28.436Z,102138.84
2023-02-12T17:43:55.130Z,102129.28
2023-02-12T17:46:24.802Z,102132.78
2023-02-12T17:48:51.518Z,102118.88
2023-02-12T17:51:18.822Z,102119.75
2023-02-12T17:53:45.612Z,102120.69
2023-02-12T17:56:14.043Z,102120.75
2023-02-12T17:58:41.838Z,102123.44
2023-02-12T18:01:11.909Z,102131.34
2023-02-12T18:03:39.440Z,102129.59
2023-02-12T18:06:07.285Z,102122.63
2023-02-12T18:08:34.533Z,102122.66
2023-02-12T18:11:10.269Z,102124.44
2023-02-12T18:13:38.074Z,102128.00
2023-02-12T18:16:10.174Z,102118.38
2023-02-12T18:18:37.868Z,102115.00
2023-02-12T18:21:10.043Z,102115.06
2023-02-12T18:23:36.869Z,102120.41
2023-02-12T18:26:14.586Z,102118.72
2023-02-12T18:28:42.126Z,102115.22
2023-02-12T18:31:10.700Z,102103.88
2023-02-12T18:33:37.900Z,102111.75
2023-02-12T18:36:13.987Z,102122.28
2023-02-12T18:38:42.065Z,102117.97
2023-02-12T18:41:15.548Z,102126.75
2023-02-12T18:43:43.981Z,102121.50
2023-02-12T18:46:13.923Z,102136.31
2023-02-12T18:48:41.741Z,102145.03
2023-02-12T18:51:10.300Z,102154.59
2023-02-12T18:53:37.090Z,102148.38
2023-02-12T18:56:05.878Z,102154.38
2023-02-12T18:58:33.229Z,102159.59
2023-02-12T19:01:00.628Z,102164.78
2023-02-12T19:03:27.684Z,102150.78
2023-02-12T19:06:01.981Z,102151.66
2023-02-12T19:08:28.618Z,102156.94
2023-02-12T19:10:55.542Z,102163.91
2023-02-12T19:13:22.378Z,102166.53
2023-02-12T19:15:49.027Z,102162.16
2023-02-12T19:18:16.657Z,102154.25
2023-02-12T19:20:43.322Z,102160.38
2023-02-12T19:23:09.996Z,102165.59
2023-02-12T19:25:42.728Z,102176.94
2023-02-12T19:28:10.441Z,102166.41
2023-02-12T19:30:38.822Z,102162.03
2023-02-12T19:33:06.279Z,102162.03
2023-02-12T19:35:33.812Z,102159.44
2023-02-12T19:38:02.069Z,102160.38
2023-02-12T19:40:28.861Z,102160.41
2023-02-12T19:42:55.581Z,102151.66
2023-02-12T19:45:22.343Z,102155.13
2023-02-12T19:47:50.808Z,102151.63
2023-02-12T19:50:17.570Z,102149.00
2023-02-12T19:52:44.353Z,102146.38
2023-02-12T19:55:11.009Z,102156.03
2023-02-12T19:57:38.725Z,102154.28
2023-02-12T20:00:06.648Z,102156.06
2023-02-12T20:02:33.551Z,102158.66
2023-02-12T20:05:00.285Z,102166.50
2023-02-12T20:07:27.004Z,102165.53
2023-02-12T20:09:53.700Z,102161.16
2023-02-12T20:12:20.424Z,102175.09
2023-02-12T20:14:47.091Z,102166.28
2023-02-12T20:17:14.419Z,102166.34
2023-02-12T20:19:41.105Z,102176.81
2023-02-12T20:22:07.832Z,102169.91
2023-02-12T20:24:35.164Z,102155.91
2023-02-12T20:27:02.658Z,102150.69
2023-02-12T20:29:29.564Z,102158.59
2023-02-12T20:31:56.461Z,102148.06
2023-02-12T20:34:23.909Z,102154.19
2023-02-12T20:36:50.612Z,102161.22
2023-02-12T20:39:19.885Z,102145.50
2023-02-12T20:41:47.331Z,102140.31
2023-02-12T20:44:18.732Z,102135.09
2023-02-12T20:46:47.047Z,102127.22
2023-02-12T20:49:15.192Z,102125.47
2023-02-12T20:51:42.220Z,102132.44
2023-02-12T20:54:09.153Z,102123.69
2023-02-12T20:56:37.318Z,102114.09
2023-02-12T20:59:05.904Z,102110.56
2023-02-12T21:01:37.988Z,102108.88
2023-02-12T21:04:13.165Z,102109.75
2023-02-12T21:06:40.514Z,102104.53
2023-02-12T21:09:09.838Z,102107.13
2023-02-12T21:11:38.250Z,102121.97
2023-02-12T21:14:21.300Z,102134.16
2023-02-12T21:16:48.504Z,102136.78
2023-02-12T21:19:15.292Z,102130.59
2023-02-12T21:21:48.140Z,102133.22
2023-02-12T21:24:18.316Z,102130.59
2023-02-12T21:26:45.043Z,102128.00
2023-02-12T21:29:11.730Z,102132.34
2023-02-12T21:31:41.102Z,102126.22
2023-02-12T21:34:11.287Z,102130.53
2023-02-12T21:36:40.153Z,102127.06
2023-02-12T21:39:08.985Z,102130.53
2023-02-12T21:41:38.354Z,102128.84
2023-02-12T21:44:17.058Z,102123.59
2023-02-12T21:46:44.568Z,102129.72
2023-02-12T21:49:13.398Z,102126.22
2023-02-12T21:51:42.510Z,102127.06
2023-02-12T21:54:12.279Z,102125.31
2023-02-12T21:56:40.836Z,102125.28
2023-02-12T21:59:08.791Z,102122.66
2023-02-12T22:01:38.761Z,102123.53
2023-02-12T22:04:07.060Z,102127.06
2023-02-12T22:06:37.337Z,102126.22
2023-02-12T22:09:09.227Z,102124.53
2023-02-12T22:11:38.004Z,102120.22
2023-02-12T22:14:06.850Z,102122.00
2023-02-12T22:16:34.021Z,102118.56
2023-02-12T22:19:02.151Z,102119.50
2023-02-12T22:21:31.210Z,102125.59
2023-02-12T22:24:01.290Z,102124.72
2023-02-12T22:26:31.912Z,102130.78
2023-02-12T22:29:04.995Z,102131.66
2023-02-12T22:31:34.274Z,102128.97
2023-02-12T22:34:04.539Z,102125.47
2023-02-12T22:36:31.625Z,102125.41
2023-02-12T22:39:00.314Z,102126.28
2023-02-12T22:41:28.506Z,102127.16
2023-02-12T22:43:55.761Z,102119.28
2023-02-12T22:46:22.481Z,102114.94
2023-02-12T22:48:49.267Z,102121.06
2023-02-12T22:51:26.855Z,102111.44
2023-02-12T22:53:54.739Z,102121.94
2023-02-12T22:56:22.208Z,102119.25
2023-02-12T22:58:56.976Z,102118.31
2023-02-12T23:01:25.255Z,102114.75
2023-02-12T23:03:52.600Z,102120.00
2023-02-12T23:06:21.926Z,102113.88
2023-02-12T23:08:54.123Z,102110.38
2023-02-12T23:11:21.335Z,102115.63
2023-02-12T23:13:53.766Z,102113.91
2023-02-12T23:16:28.689Z,102117.44
2023-02-12T23:19:02.064Z,102102.66
2023-02-12T23:21:32.282Z,102111.44
2023-02-12T23:23:59.542Z,102115.88
2023-02-12T23:26:27.601Z,102102.78
2023-02-12T23:28:54.518Z,102108.00
2023-02-12T23:31:24.700Z,102105.38
2023-02-12T23:33:52.036Z,102107.13
2023-02-12T23:36:18.734Z,102098.41
2023-02-12T23:38:45.414Z,102104.53
2023-02-12T23:41:13.855Z,102094.09
2023-02-12T23:43:40.545Z,102099.34
2023-02-12T23:46:08.330Z,102092.41
2023-02-12T23:48:35.073Z,102090.72
2023-02-12T23:51:01.755Z,102089.03
2023-02-12T23:53:28.538Z,102093.44
2023-02-12T23:55:55.845Z,102084.72
2023-02-12T23:58:22.603Z,102085.59
